sensor_id;sensor_type;location;lat;lon;timestamp;temperature;humidity
4739;DHT22;2383;48.632;10.156;2022-09-09T00:01:28;18.60;99.90
4739;DHT22;2383;48.632;10.156;2022-09-09T00:05:55;18.40;99.90
4739;DHT22;2383;48.632;10.156;2022-09-09T00:10:24;18.40;99.90
4739;DHT22;2383;48.632;10.156;2022-09-09T00:14:37;18.40;99.90
4739;DHT22;2383;48.632;10.156;2022-09-09T00:19:13;18.40;99.90
4739;DHT22;2383;48.632;10.156;2022-09-09T00:27:31;18.20;99.90
4739;DHT22;2383;48.632;10.156;2022-09-09T00:31:34;18.20;99.90
4739;DHT22;2383;48.632;10.156;2022-09-09T00:35:38;18.40;99.90
4739;DHT22;2383;48.632;10.156;2022-09-09T00:39:44;18.20;99.90
4739;DHT22;2383;48.632;10.156;2022-09-09T00:48:21;18.00;99.90
4739;DHT22;2383;48.632;10.156;2022-09-09T00:57:23;17.90;99.90
4739;DHT22;2383;48.632;10.156;2022-09-09T01:01:25;17.80;99.90
4739;DHT22;2383;48.632;10.156;2022-09-09T01:05:30;18.20;99.90
4739;DHT22;2383;48.632;10.156;2022-09-09T01:09:59;18.20;99.90
4739;DHT22;2383;48.632;10.156;2022-09-09T01:14:19;18.10;99.90
4739;DHT22;2383;48.632;10.156;2022-09-09T01:18:35;18.10;99.90
4739;DHT22;2383;48.632;10.156;2022-09-09T01:27:02;17.10;99.90
4739;DHT22;2383;48.632;10.156;2022-09-09T01:31:06;17.00;99.90
4739;DHT22;2383;48.632;10.156;2022-09-09T01:39:33;17.70;99.90
4739;DHT22;2383;48.632;10.156;2022-09-09T01:43:37;17.70;99.90
4739;DHT22;2383;48.632;10.156;2022-09-09T01:47:39;17.90;99.90
4739;DHT22;2383;48.632;10.156;2022-09-09T01:51:42;18.00;99.90
4739;DHT22;2383;48.632;10.156;2022-09-09T01:56:02;17.90;99.90
4739;DHT22;2383;48.632;10.156;2022-09-09T02:00:08;18.00;99.90
4739;DHT22;2383;48.632;10.156;2022-09-09T02:08:59;17.20;99.90
4739;DHT22;2383;48.632;10.156;2022-09-09T02:13:10;16.70;99.90
4739;DHT22;2383;48.632;10.156;2022-09-09T02:17:15;16.80;99.90
4739;DHT22;2383;48.632;10.156;2022-09-09T02:21:18;16.20;99.90
4739;DHT22;2383;48.632;10.156;2022-09-09T02:25:23;17.00;99.90
4739;DHT22;2383;48.632;10.156;2022-09-09T02:29:28;17.00;99.90
4739;DHT22;2383;48.632;10.156;2022-09-09T02:33:38;17.30;99.90
4739;DHT22;2383;48.632;10.156;2022-09-09T02:37:42;17.40;99.90
4739;DHT22;2383;48.632;10.156;2022-09-09T02:41:47;17.40;99.90
4739;DHT22;2383;48.632;10.156;2022-09-09T02:50:29;17.10;99.90
4739;DHT22;2383;48.632;10.156;2022-09-09T02:54:43;17.50;99.90
4739;DHT22;2383;48.632;10.156;2022-09-09T02:58:45;17.40;99.90
4739;DHT22;2383;48.632;10.156;2022-09-09T03:02:47;17.70;99.90
4739;DHT22;2383;48.632;10.156;2022-09-09T03:06:49;17.50;99.90
4739;DHT22;2383;48.632;10.156;2022-09-09T03:10:51;17.30;99.90
4739;DHT22;2383;48.632;10.156;2022-09-09T03:14:55;17.40;99.90
4739;DHT22;2383;48.632;10.156;2022-09-09T03:18:57;17.30;99.90
4739;DHT22;2383;48.632;10.156;2022-09-09T03:22:59;17.40;99.90
4739;DHT22;2383;48.632;10.156;2022-09-09T03:27:01;17.50;99.90
4739;DHT22;2383;48.632;10.156;2022-09-09T03:31:04;17.20;99.90
4739;DHT22;2383;48.632;10.156;2022-09-09T03:35:06;16.60;99.90
4739;DHT22;2383;48.632;10.156;2022-09-09T03:39:08;16.60;99.90
4739;DHT22;2383;48.632;10.156;2022-09-09T03:43:10;17.00;99.90
4739;DHT22;2383;48.632;10.156;2022-09-09T03:47:12;17.00;99.90
4739;DHT22;2383;48.632;10.156;2022-09-09T03:51:14;17.20;99.90
4739;DHT22;2383;48.632;10.156;2022-09-09T03:55:17;17.70;99.90
4739;DHT22;2383;48.632;10.156;2022-09-09T03:59:19;17.80;99.90
4739;DHT22;2383;48.632;10.156;2022-09-09T04:03:22;17.90;99.90
4739;DHT22;2383;48.632;10.156;2022-09-09T04:07:29;17.90;99.90
4739;DHT22;2383;48.632;10.156;2022-09-09T04:11:30;18.00;99.90
4739;DHT22;2383;48.632;10.156;2022-09-09T04:15:32;18.00;99.90
4739;DHT22;2383;48.632;10.156;2022-09-09T04:19:34;18.30;99.90
4739;DHT22;2383;48.632;10.156;2022-09-09T04:23:37;18.40;99.90
4739;DHT22;2383;48.632;10.156;2022-09-09T04:27:38;18.40;99.90
4739;DHT22;2383;48.632;10.156;2022-09-09T04:31:40;18.60;99.90
4739;DHT22;2383;48.632;10.156;2022-09-09T04:35:49;18.40;99.90
4739;DHT22;2383;48.632;10.156;2022-09-09T04:39:51;17.20;99.90
4739;DHT22;2383;48.632;10.156;2022-09-09T04:43:53;17.70;99.90
4739;DHT22;2383;48.632;10.156;2022-09-09T04:47:55;17.90;99.90
4739;DHT22;2383;48.632;10.156;2022-09-09T04:51:56;17.70;99.90
4739;DHT22;2383;48.632;10.156;2022-09-09T04:56:05;17.80;99.90
4739;DHT22;2383;48.632;10.156;2022-09-09T05:00:07;18.20;99.90
4739;DHT22;2383;48.632;10.156;2022-09-09T05:04:09;18.20;99.90
4739;DHT22;2383;48.632;10.156;2022-09-09T05:08:12;17.60;99.90
4739;DHT22;2383;48.632;10.156;2022-09-09T05:12:13;18.20;99.90
4739;DHT22;2383;48.632;10.156;2022-09-09T05:16:16;18.10;99.90
4739;DHT22;2383;48.632;10.156;2022-09-09T05:20:18;18.30;99.90
4739;DHT22;2383;48.632;10.156;2022-09-09T05:24:20;18.30;99.90
4739;DHT22;2383;48.632;10.156;2022-09-09T05:28:22;18.40;99.90
4739;DHT22;2383;48.632;10.156;2022-09-09T05:32:24;18.30;99.90
4739;DHT22;2383;48.632;10.156;2022-09-09T05:36:25;18.50;99.90
4739;DHT22;2383;48.632;10.156;2022-09-09T05:40:27;18.60;99.90
4739;DHT22;2383;48.632;10.156;2022-09-09T05:44:29;18.90;99.90
4739;DHT22;2383;48.632;10.156;2022-09-09T05:48:32;19.00;99.90
4739;DHT22;2383;48.632;10.156;2022-09-09T05:56:55;18.00;99.90
4739;DHT22;2383;48.632;10.156;2022-09-09T06:01:13;18.30;99.90
4739;DHT22;2383;48.632;10.156;2022-09-09T06:05:15;18.60;99.90
4739;DHT22;2383;48.632;10.156;2022-09-09T06:09:17;18.80;99.90
4739;DHT22;2383;48.632;10.156;2022-09-09T06:13:19;18.80;99.90
4739;DHT22;2383;48.632;10.156;2022-09-09T06:17:21;19.00;99.90
4739;DHT22;2383;48.632;10.156;2022-09-09T06:21:24;19.40;99.90
4739;DHT22;2383;48.632;10.156;2022-09-09T06:25:26;19.20;99.90
4739;DHT22;2383;48.632;10.156;2022-09-09T06:29:28;18.90;99.90
4739;DHT22;2383;48.632;10.156;2022-09-09T06:33:31;18.20;99.90
4739;DHT22;2383;48.632;10.156;2022-09-09T06:37:36;18.50;99.90
4739;DHT22;2383;48.632;10.156;2022-09-09T06:41:38;18.90;99.90
4739;DHT22;2383;48.632;10.156;2022-09-09T06:45:40;19.10;99.90
4739;DHT22;2383;48.632;10.156;2022-09-09T06:49:41;19.30;99.90
4739;DHT22;2383;48.632;10.156;2022-09-09T06:53:53;19.50;99.90
4739;DHT22;2383;48.632;10.156;2022-09-09T06:57:55;18.80;99.90
4739;DHT22;2383;48.632;10.156;2022-09-09T07:01:58;18.60;99.90
4739;DHT22;2383;48.632;10.156;2022-09-09T07:06:00;19.20;99.90
4739;DHT22;2383;48.632;10.156;2022-09-09T07:10:03;19.10;99.90
4739;DHT22;2383;48.632;10.156;2022-09-09T07:14:05;19.40;99.90
4739;DHT22;2383;48.632;10.156;2022-09-09T07:18:07;19.70;99.90
4739;DHT22;2383;48.632;10.156;2022-09-09T07:22:11;20.00;99.90
4739;DHT22;2383;48.632;10.156;2022-09-09T07:26:16;20.20;99.90
4739;DHT22;2383;48.632;10.156;2022-09-09T07:30:18;19.90;99.90
4739;DHT22;2383;48.632;10.156;2022-09-09T07:34:27;20.20;99.90
4739;DHT22;2383;48.632;10.156;2022-09-09T07:38:29;20.60;99.90
4739;DHT22;2383;48.632;10.156;2022-09-09T07:42:31;20.50;99.90
4739;DHT22;2383;48.632;10.156;2022-09-09T07:46:36;20.70;99.90
4739;DHT22;2383;48.632;10.156;2022-09-09T07:50:44;20.70;99.90
4739;DHT22;2383;48.632;10.156;2022-09-09T07:54:46;20.90;99.90
4739;DHT22;2383;48.632;10.156;2022-09-09T07:58:48;21.00;99.90
4739;DHT22;2383;48.632;10.156;2022-09-09T08:02:50;21.10;99.90
4739;DHT22;2383;48.632;10.156;2022-09-09T08:06:59;21.20;99.90
4739;DHT22;2383;48.632;10.156;2022-09-09T08:11:05;21.20;99.90
4739;DHT22;2383;48.632;10.156;2022-09-09T08:15:09;21.30;99.90
4739;DHT22;2383;48.632;10.156;2022-09-09T08:19:11;21.60;99.90
4739;DHT22;2383;48.632;10.156;2022-09-09T08:23:12;21.60;99.90
4739;DHT22;2383;48.632;10.156;2022-09-09T08:27:15;21.60;99.90
4739;DHT22;2383;48.632;10.156;2022-09-09T08:35:20;22.30;99.90
4739;DHT22;2383;48.632;10.156;2022-09-09T08:39:22;22.40;99.90
4739;DHT22;2383;48.632;10.156;2022-09-09T08:43:24;22.20;99.90
4739;DHT22;2383;48.632;10.156;2022-09-09T08:51:49;22.20;99.90
4739;DHT22;2383;48.632;10.156;2022-09-09T08:55:54;21.70;99.90
4739;DHT22;2383;48.632;10.156;2022-09-09T08:59:58;21.30;99.90
4739;DHT22;2383;48.632;10.156;2022-09-09T09:12:22;22.70;99.90
4739;DHT22;2383;48.632;10.156;2022-09-09T09:20:42;22.50;99.90
4739;DHT22;2383;48.632;10.156;2022-09-09T09:28:55;22.40;99.90
4739;DHT22;2383;48.632;10.156;2022-09-09T09:33:05;21.50;99.90
4739;DHT22;2383;48.632;10.156;2022-09-09T09:37:17;22.20;99.90
4739;DHT22;2383;48.632;10.156;2022-09-09T09:41:38;22.60;99.90
4739;DHT22;2383;48.632;10.156;2022-09-09T09:45:44;22.60;99.90
4739;DHT22;2383;48.632;10.156;2022-09-09T09:50:18;23.00;99.90
4739;DHT22;2383;48.632;10.156;2022-09-09T09:54:33;23.40;99.90
4739;DHT22;2383;48.632;10.156;2022-09-09T09:58:57;22.90;99.90
4739;DHT22;2383;48.632;10.156;2022-09-09T10:03:00;23.40;99.30
4739;DHT22;2383;48.632;10.156;2022-09-09T10:07:17;23.40;99.90
4739;DHT22;2383;48.632;10.156;2022-09-09T10:11:30;23.60;99.80
4739;DHT22;2383;48.632;10.156;2022-09-09T10:29:36;23.90;97.50
4739;DHT22;2383;48.632;10.156;2022-09-09T10:42:06;24.60;97.00
4739;DHT22;2383;48.632;10.156;2022-09-09T10:59:19;23.70;94.60
4739;DHT22;2383;48.632;10.156;2022-09-09T11:03:26;23.50;95.20
4739;DHT22;2383;48.632;10.156;2022-09-09T11:07:42;24.20;95.60
4739;DHT22;2383;48.632;10.156;2022-09-09T11:11:56;25.00;96.00
4739;DHT22;2383;48.632;10.156;2022-09-09T11:16:04;24.60;93.10
4739;DHT22;2383;48.632;10.156;2022-09-09T11:20:11;23.80;92.30
4739;DHT22;2383;48.632;10.156;2022-09-09T11:41:39;24.00;92.40
4739;DHT22;2383;48.632;10.156;2022-09-09T11:45:51;23.90;90.60
4739;DHT22;2383;48.632;10.156;2022-09-09T11:54:30;22.50;92.00
4739;DHT22;2383;48.632;10.156;2022-09-09T11:58:37;23.30;92.00
4739;DHT22;2383;48.632;10.156;2022-09-09T12:02:48;23.80;91.30
4739;DHT22;2383;48.632;10.156;2022-09-09T12:06:56;23.40;91.10
4739;DHT22;2383;48.632;10.156;2022-09-09T12:10:59;23.80;91.10
4739;DHT22;2383;48.632;10.156;2022-09-09T12:28:11;24.40;90.30
4739;DHT22;2383;48.632;10.156;2022-09-09T12:32:17;24.40;90.40
4739;DHT22;2383;48.632;10.156;2022-09-09T12:36:27;24.20;91.40
4739;DHT22;2383;48.632;10.156;2022-09-09T12:40:32;23.50;89.40
4739;DHT22;2383;48.632;10.156;2022-09-09T12:44:36;23.00;87.00
4739;DHT22;2383;48.632;10.156;2022-09-09T12:48:41;22.90;87.80
4739;DHT22;2383;48.632;10.156;2022-09-09T12:52:48;23.30;87.80
4739;DHT22;2383;48.632;10.156;2022-09-09T12:56:51;23.50;90.20
4739;DHT22;2383;48.632;10.156;2022-09-09T13:00:55;23.60;89.70
4739;DHT22;2383;48.632;10.156;2022-09-09T13:05:25;23.90;88.40
4739;DHT22;2383;48.632;10.156;2022-09-09T13:09:27;23.60;87.30
4739;DHT22;2383;48.632;10.156;2022-09-09T13:13:38;24.30;88.50
4739;DHT22;2383;48.632;10.156;2022-09-09T13:17:40;24.40;88.50
4739;DHT22;2383;48.632;10.156;2022-09-09T13:21:42;23.20;90.90
4739;DHT22;2383;48.632;10.156;2022-09-09T13:25:54;22.50;92.20
4739;DHT22;2383;48.632;10.156;2022-09-09T13:29:56;22.80;92.80
4739;DHT22;2383;48.632;10.156;2022-09-09T13:33:58;22.40;93.00
4739;DHT22;2383;48.632;10.156;2022-09-09T13:38:07;22.80;92.60
4739;DHT22;2383;48.632;10.156;2022-09-09T13:42:33;22.60;92.40
4739;DHT22;2383;48.632;10.156;2022-09-09T13:46:40;22.80;92.10
4739;DHT22;2383;48.632;10.156;2022-09-09T13:50:54;22.60;92.00
4739;DHT22;2383;48.632;10.156;2022-09-09T13:54:55;21.90;92.30
4739;DHT22;2383;48.632;10.156;2022-09-09T13:58:59;22.70;92.00
4739;DHT22;2383;48.632;10.156;2022-09-09T14:03:01;22.70;91.60
4739;DHT22;2383;48.632;10.156;2022-09-09T14:07:03;23.30;91.20
4739;DHT22;2383;48.632;10.156;2022-09-09T14:11:07;22.50;90.80
4739;DHT22;2383;48.632;10.156;2022-09-09T14:15:12;22.60;91.30
4739;DHT22;2383;48.632;10.156;2022-09-09T14:19:14;22.30;91.00
4739;DHT22;2383;48.632;10.156;2022-09-09T14:23:16;22.60;90.90
4739;DHT22;2383;48.632;10.156;2022-09-09T14:27:18;22.50;90.70
4739;DHT22;2383;48.632;10.156;2022-09-09T14:31:20;22.90;90.80
4739;DHT22;2383;48.632;10.156;2022-09-09T14:35:22;23.40;90.80
4739;DHT22;2383;48.632;10.156;2022-09-09T14:39:25;23.00;90.80
4739;DHT22;2383;48.632;10.156;2022-09-09T14:43:27;22.30;91.30
4739;DHT22;2383;48.632;10.156;2022-09-09T14:47:29;22.80;91.60
4739;DHT22;2383;48.632;10.156;2022-09-09T14:51:32;22.60;91.60
4739;DHT22;2383;48.632;10.156;2022-09-09T14:55:33;22.90;91.40
4739;DHT22;2383;48.632;10.156;2022-09-09T14:59:35;23.00;91.00
4739;DHT22;2383;48.632;10.156;2022-09-09T15:03:42;23.60;90.40
4739;DHT22;2383;48.632;10.156;2022-09-09T15:07:45;23.60;91.50
4739;DHT22;2383;48.632;10.156;2022-09-09T15:11:47;24.10;90.20
4739;DHT22;2383;48.632;10.156;2022-09-09T15:15:49;24.30;89.70
4739;DHT22;2383;48.632;10.156;2022-09-09T15:19:51;23.50;90.00
4739;DHT22;2383;48.632;10.156;2022-09-09T15:23:55;23.60;91.10
4739;DHT22;2383;48.632;10.156;2022-09-09T15:27:56;23.30;90.70
4739;DHT22;2383;48.632;10.156;2022-09-09T15:31:58;23.30;91.20
4739;DHT22;2383;48.632;10.156;2022-09-09T15:36:00;23.60;90.50
4739;DHT22;2383;48.632;10.156;2022-09-09T15:40:02;23.80;90.00
4739;DHT22;2383;48.632;10.156;2022-09-09T15:44:04;24.00;89.90
4739;DHT22;2383;48.632;10.156;2022-09-09T15:48:07;24.10;90.30
4739;DHT22;2383;48.632;10.156;2022-09-09T15:52:10;24.70;90.30
4739;DHT22;2383;48.632;10.156;2022-09-09T15:56:12;24.60;88.00
4739;DHT22;2383;48.632;10.156;2022-09-09T16:00:15;24.40;88.80
4739;DHT22;2383;48.632;10.156;2022-09-09T16:04:21;24.20;88.70
4739;DHT22;2383;48.632;10.156;2022-09-09T16:08:32;23.80;88.80
4739;DHT22;2383;48.632;10.156;2022-09-09T16:12:34;23.70;88.20
4739;DHT22;2383;48.632;10.156;2022-09-09T16:16:36;24.10;87.60
4739;DHT22;2383;48.632;10.156;2022-09-09T16:20:38;24.40;88.30
4739;DHT22;2383;48.632;10.156;2022-09-09T16:24:42;24.30;90.00
4739;DHT22;2383;48.632;10.156;2022-09-09T16:28:46;24.20;91.20
4739;DHT22;2383;48.632;10.156;2022-09-09T16:32:49;24.50;89.50
4739;DHT22;2383;48.632;10.156;2022-09-09T16:36:51;24.60;88.50
4739;DHT22;2383;48.632;10.156;2022-09-09T16:41:02;24.40;88.20
4739;DHT22;2383;48.632;10.156;2022-09-09T16:45:04;24.50;89.40
4739;DHT22;2383;48.632;10.156;2022-09-09T16:49:12;24.60;88.80
4739;DHT22;2383;48.632;10.156;2022-09-09T16:53:14;24.60;90.10
4739;DHT22;2383;48.632;10.156;2022-09-09T16:57:16;24.70;90.80
4739;DHT22;2383;48.632;10.156;2022-09-09T17:01:18;24.70;91.40
4739;DHT22;2383;48.632;10.156;2022-09-09T17:05:19;24.40;91.80
4739;DHT22;2383;48.632;10.156;2022-09-09T17:09:25;24.00;91.80
4739;DHT22;2383;48.632;10.156;2022-09-09T17:13:31;24.10;91.70
4739;DHT22;2383;48.632;10.156;2022-09-09T17:17:35;24.10;91.90
4739;DHT22;2383;48.632;10.156;2022-09-09T17:21:37;23.90;91.60
4739;DHT22;2383;48.632;10.156;2022-09-09T17:25:59;23.70;92.40
4739;DHT22;2383;48.632;10.156;2022-09-09T17:30:01;24.00;92.60
4739;DHT22;2383;48.632;10.156;2022-09-09T17:34:04;23.00;94.00
4739;DHT22;2383;48.632;10.156;2022-09-09T17:38:06;22.90;94.50
4739;DHT22;2383;48.632;10.156;2022-09-09T17:42:08;23.00;94.30
4739;DHT22;2383;48.632;10.156;2022-09-09T17:46:21;22.60;95.00
4739;DHT22;2383;48.632;10.156;2022-09-09T17:50:23;22.60;95.30
4739;DHT22;2383;48.632;10.156;2022-09-09T17:54:25;23.00;95.30
4739;DHT22;2383;48.632;10.156;2022-09-09T17:58:27;22.90;95.80
4739;DHT22;2383;48.632;10.156;2022-09-09T18:02:29;22.60;96.00
4739;DHT22;2383;48.632;10.156;2022-09-09T18:06:36;22.30;94.80
4739;DHT22;2383;48.632;10.156;2022-09-09T18:10:38;22.50;96.00
4739;DHT22;2383;48.632;10.156;2022-09-09T18:14:41;22.60;95.60
4739;DHT22;2383;48.632;10.156;2022-09-09T18:18:43;22.20;96.70
4739;DHT22;2383;48.632;10.156;2022-09-09T18:22:45;21.80;96.60
4739;DHT22;2383;48.632;10.156;2022-09-09T18:26:48;22.10;96.10
4739;DHT22;2383;48.632;10.156;2022-09-09T18:30:51;21.70;96.00
4739;DHT22;2383;48.632;10.156;2022-09-09T18:34:53;21.30;95.60
4739;DHT22;2383;48.632;10.156;2022-09-09T18:38:57;21.30;94.90
4739;DHT22;2383;48.632;10.156;2022-09-09T18:42:59;20.90;93.70
4739;DHT22;2383;48.632;10.156;2022-09-09T18:47:01;21.00;93.50
4739;DHT22;2383;48.632;10.156;2022-09-09T18:51:09;21.30;94.10
4739;DHT22;2383;48.632;10.156;2022-09-09T18:55:10;21.40;94.70
4739;DHT22;2383;48.632;10.156;2022-09-09T18:59:17;21.80;94.30
4739;DHT22;2383;48.632;10.156;2022-09-09T19:03:26;21.90;94.40
4739;DHT22;2383;48.632;10.156;2022-09-09T19:07:28;21.90;93.50
4739;DHT22;2383;48.632;10.156;2022-09-09T19:11:30;22.00;93.30
4739;DHT22;2383;48.632;10.156;2022-09-09T19:15:35;22.00;94.50
4739;DHT22;2383;48.632;10.156;2022-09-09T19:19:38;21.70;94.40
4739;DHT22;2383;48.632;10.156;2022-09-09T19:23:47;21.80;93.90
4739;DHT22;2383;48.632;10.156;2022-09-09T19:27:49;21.40;94.80
4739;DHT22;2383;48.632;10.156;2022-09-09T19:31:53;21.40;94.70
4739;DHT22;2383;48.632;10.156;2022-09-09T19:36:17;20.70;95.80
4739;DHT22;2383;48.632;10.156;2022-09-09T19:40:19;20.30;96.50
4739;DHT22;2383;48.632;10.156;2022-09-09T19:44:22;20.30;96.90
4739;DHT22;2383;48.632;10.156;2022-09-09T19:48:25;19.90;97.00
4739;DHT22;2383;48.632;10.156;2022-09-09T19:52:27;20.10;96.90
4739;DHT22;2383;48.632;10.156;2022-09-09T19:56:29;20.20;96.70
4739;DHT22;2383;48.632;10.156;2022-09-09T20:00:32;20.00;96.40
4739;DHT22;2383;48.632;10.156;2022-09-09T20:04:40;20.40;96.60
4739;DHT22;2383;48.632;10.156;2022-09-09T20:08:44;19.60;96.80
4739;DHT22;2383;48.632;10.156;2022-09-09T20:12:47;19.40;97.20
4739;DHT22;2383;48.632;10.156;2022-09-09T20:16:50;19.30;97.60
4739;DHT22;2383;48.632;10.156;2022-09-09T20:20:56;19.80;97.10
4739;DHT22;2383;48.632;10.156;2022-09-09T20:24:58;20.10;97.10
4739;DHT22;2383;48.632;10.156;2022-09-09T20:29:01;20.00;97.00
4739;DHT22;2383;48.632;10.156;2022-09-09T20:33:05;20.20;97.00
4739;DHT22;2383;48.632;10.156;2022-09-09T20:37:08;20.70;96.80
4739;DHT22;2383;48.632;10.156;2022-09-09T20:41:11;20.60;97.00
4739;DHT22;2383;48.632;10.156;2022-09-09T20:45:14;20.30;97.60
4739;DHT22;2383;48.632;10.156;2022-09-09T20:49:19;20.40;97.60
4739;DHT22;2383;48.632;10.156;2022-09-09T20:53:21;20.50;97.90
4739;DHT22;2383;48.632;10.156;2022-09-09T20:57:23;20.30;97.90
4739;DHT22;2383;48.632;10.156;2022-09-09T21:01:25;20.30;98.20
4739;DHT22;2383;48.632;10.156;2022-09-09T21:05:27;20.50;98.00
4739;DHT22;2383;48.632;10.156;2022-09-09T21:09:29;21.00;97.40
4739;DHT22;2383;48.632;10.156;2022-09-09T21:13:34;20.00;97.70
4739;DHT22;2383;48.632;10.156;2022-09-09T21:17:37;19.50;98.50
4739;DHT22;2383;48.632;10.156;2022-09-09T21:21:40;19.20;99.00
4739;DHT22;2383;48.632;10.156;2022-09-09T21:25:43;18.90;99.10
4739;DHT22;2383;48.632;10.156;2022-09-09T21:29:44;19.20;99.70
4739;DHT22;2383;48.632;10.156;2022-09-09T21:33:48;19.30;99.50
4739;DHT22;2383;48.632;10.156;2022-09-09T21:37:50;19.60;99.20
4739;DHT22;2383;48.632;10.156;2022-09-09T21:41:51;19.40;99.50
4739;DHT22;2383;48.632;10.156;2022-09-09T21:45:53;19.50;99.80
4739;DHT22;2383;48.632;10.156;2022-09-09T21:49:55;19.50;99.30
4739;DHT22;2383;48.632;10.156;2022-09-09T21:53:56;19.20;99.20
4739;DHT22;2383;48.632;10.156;2022-09-09T21:57:58;19.50;99.20
4739;DHT22;2383;48.632;10.156;2022-09-09T22:02:00;19.60;99.10
4739;DHT22;2383;48.632;10.156;2022-09-09T22:06:04;19.90;98.90
4739;DHT22;2383;48.632;10.156;2022-09-09T22:10:07;19.90;98.50
4739;DHT22;2383;48.632;10.156;2022-09-09T22:14:10;18.60;99.40
4739;DHT22;2383;48.632;10.156;2022-09-09T22:18:12;17.40;99.90
4739;DHT22;2383;48.632;10.156;2022-09-09T22:22:17;17.40;99.90
4739;DHT22;2383;48.632;10.156;2022-09-09T22:26:19;18.30;99.90
4739;DHT22;2383;48.632;10.156;2022-09-09T22:30:21;18.80;99.90
4739;DHT22;2383;48.632;10.156;2022-09-09T22:34:23;18.90;99.50
4739;DHT22;2383;48.632;10.156;2022-09-09T22:38:29;19.20;99.30
4739;DHT22;2383;48.632;10.156;2022-09-09T22:42:31;19.10;99.30
4739;DHT22;2383;48.632;10.156;2022-09-09T22:46:33;18.40;99.50
4739;DHT22;2383;48.632;10.156;2022-09-09T22:50:35;18.80;99.40
4739;DHT22;2383;48.632;10.156;2022-09-09T22:54:42;19.30;98.90
4739;DHT22;2383;48.632;10.156;2022-09-09T22:58:47;19.50;98.80
4739;DHT22;2383;48.632;10.156;2022-09-09T23:02:53;19.70;98.60
4739;DHT22;2383;48.632;10.156;2022-09-09T23:06:57;19.80;98.50
4739;DHT22;2383;48.632;10.156;2022-09-09T23:11:02;19.80;98.30
4739;DHT22;2383;48.632;10.156;2022-09-09T23:15:05;19.60;98.90
4739;DHT22;2383;48.632;10.156;2022-09-09T23:19:13;18.90;99.60
4739;DHT22;2383;48.632;10.156;2022-09-09T23:23:16;18.80;99.90
4739;DHT22;2383;48.632;10.156;2022-09-09T23:27:18;18.90;99.90
4739;DHT22;2383;48.632;10.156;2022-09-09T23:31:22;18.90;99.90
4739;DHT22;2383;48.632;10.156;2022-09-09T23:35:26;19.30;99.80
4739;DHT22;2383;48.632;10.156;2022-09-09T23:39:27;19.40;99.60
4739;DHT22;2383;48.632;10.156;2022-09-09T23:43:29;19.50;99.60
4739;DHT22;2383;48.632;10.156;2022-09-09T23:47:31;19.60;99.40
4739;DHT22;2383;48.632;10.156;2022-09-09T23:51:33;19.50;99.50
4739;DHT22;2383;48.632;10.156;2022-09-09T23:55:35;19.20;99.60
4739;DHT22;2383;48.632;10.156;2022-09-09T23:59:37;19.10;99.90
